sensor_id;sensor_type;location;lat;lon;timestamp;temperature;humidity
9083;DHT22;4577;48.704;9.000;2023-02-15T00:01:46;3.20;71.50
9083;DHT22;4577;48.704;9.000;2023-02-15T00:04:14;3.20;71.70
9083;DHT22;4577;48.704;9.000;2023-02-15T00:06:40;3.20;71.90
9083;DHT22;4577;48.704;9.000;2023-02-15T00:14:18;3.20;71.60
9083;DHT22;4577;48.704;9.000;2023-02-15T00:16:45;3.30;71.50
9083;DHT22;4577;48.704;9.000;2023-02-15T00:19:12;3.20;71.50
9083;DHT22;4577;48.704;9.000;2023-02-15T00:21:39;3.10;71.40
9083;DHT22;4577;48.704;9.000;2023-02-15T00:24:07;3.10;71.70
9083;DHT22;4577;48.704;9.000;2023-02-15T00:26:33;3.00;71.40
9083;DHT22;4577;48.704;9.000;2023-02-15T00:31:27;2.90;71.40
9083;DHT22;4577;48.704;9.000;2023-02-15T00:36:19;3.40;72.10
9083;DHT22;4577;48.704;9.000;2023-02-15T00:41:11;2.70;71.30
9083;DHT22;4577;48.704;9.000;2023-02-15T00:43:37;2.90;71.50
9083;DHT22;4577;48.704;9.000;2023-02-15T00:46:04;2.60;71.30
9083;DHT22;4577;48.704;9.000;2023-02-15T00:50:58;2.80;71.20
9083;DHT22;4577;48.704;9.000;2023-02-15T00:53:26;3.00;71.90
9083;DHT22;4577;48.704;9.000;2023-02-15T01:00:46;2.90;71.70
9083;DHT22;4577;48.704;9.000;2023-02-15T01:03:14;3.10;71.90
9083;DHT22;4577;48.704;9.000;2023-02-15T01:05:40;2.50;71.50
9083;DHT22;4577;48.704;9.000;2023-02-15T01:08:05;2.70;71.90
9083;DHT22;4577;48.704;9.000;2023-02-15T01:10:32;2.80;72.10
9083;DHT22;4577;48.704;9.000;2023-02-15T01:12:58;2.70;72.20
9083;DHT22;4577;48.704;9.000;2023-02-15T01:15:24;2.60;71.90
9083;DHT22;4577;48.704;9.000;2023-02-15T01:17:50;2.60;72.20
9083;DHT22;4577;48.704;9.000;2023-02-15T01:20:20;2.60;72.70
9083;DHT22;4577;48.704;9.000;2023-02-15T01:27:41;2.60;72.30
9083;DHT22;4577;48.704;9.000;2023-02-15T01:35:00;2.70;72.80
9083;DHT22;4577;48.704;9.000;2023-02-15T01:37:26;2.30;72.10
9083;DHT22;4577;48.704;9.000;2023-02-15T01:39:51;2.40;72.80
9083;DHT22;4577;48.704;9.000;2023-02-15T01:42:23;2.30;72.70
9083;DHT22;4577;48.704;9.000;2023-02-15T01:50:23;2.40;72.90
9083;DHT22;4577;48.704;9.000;2023-02-15T01:52:57;2.40;72.70
9083;DHT22;4577;48.704;9.000;2023-02-15T01:55:27;2.50;72.90
9083;DHT22;4577;48.704;9.000;2023-02-15T02:00:20;2.10;72.50
9083;DHT22;4577;48.704;9.000;2023-02-15T02:02:49;2.40;72.30
9083;DHT22;4577;48.704;9.000;2023-02-15T02:07:44;2.30;72.60
9083;DHT22;4577;48.704;9.000;2023-02-15T02:10:14;2.10;72.70
9083;DHT22;4577;48.704;9.000;2023-02-15T02:12:42;2.00;72.80
9083;DHT22;4577;48.704;9.000;2023-02-15T02:23:27;2.20;73.30
9083;DHT22;4577;48.704;9.000;2023-02-15T02:31:49;2.10;73.00
9083;DHT22;4577;48.704;9.000;2023-02-15T02:34:25;1.70;72.90
9083;DHT22;4577;48.704;9.000;2023-02-15T02:42:40;1.90;74.00
9083;DHT22;4577;48.704;9.000;2023-02-15T02:45:20;2.00;74.40
9083;DHT22;4577;48.704;9.000;2023-02-15T02:47:50;1.80;74.30
9083;DHT22;4577;48.704;9.000;2023-02-15T02:50:25;1.80;74.40
9083;DHT22;4577;48.704;9.000;2023-02-15T02:52:53;1.90;74.60
9083;DHT22;4577;48.704;9.000;2023-02-15T03:00:19;1.90;74.90
9083;DHT22;4577;48.704;9.000;2023-02-15T03:02:47;1.90;74.60
9083;DHT22;4577;48.704;9.000;2023-02-15T03:05:18;1.60;74.50
9083;DHT22;4577;48.704;9.000;2023-02-15T03:07:47;1.80;74.20
9083;DHT22;4577;48.704;9.000;2023-02-15T03:12:40;3.40;75.60
9083;DHT22;4577;48.704;9.000;2023-02-15T03:15:39;1.90;73.80
9083;DHT22;4577;48.704;9.000;2023-02-15T03:18:30;1.80;73.80
9083;DHT22;4577;48.704;9.000;2023-02-15T03:21:01;1.90;73.40
9083;DHT22;4577;48.704;9.000;2023-02-15T03:23:28;1.80;73.60
9083;DHT22;4577;48.704;9.000;2023-02-15T03:26:00;1.80;73.60
9083;DHT22;4577;48.704;9.000;2023-02-15T03:28:41;1.80;73.00
9083;DHT22;4577;48.704;9.000;2023-02-15T03:31:09;1.60;73.20
9083;DHT22;4577;48.704;9.000;2023-02-15T03:33:42;1.70;73.50
9083;DHT22;4577;48.704;9.000;2023-02-15T03:36:32;1.70;73.80
9083;DHT22;4577;48.704;9.000;2023-02-15T03:39:09;1.80;73.60
9083;DHT22;4577;48.704;9.000;2023-02-15T03:42:25;1.70;73.20
9083;DHT22;4577;48.704;9.000;2023-02-15T03:44:30;1.70;73.30
9083;DHT22;4577;48.704;9.000;2023-02-15T03:47:06;1.70;73.30
9083;DHT22;4577;48.704;9.000;2023-02-15T03:49:42;1.60;73.30
9083;DHT22;4577;48.704;9.000;2023-02-15T03:52:11;1.80;73.10
9083;DHT22;4577;48.704;9.000;2023-02-15T03:54:39;1.70;72.70
9083;DHT22;4577;48.704;9.000;2023-02-15T03:57:25;1.70;73.00
9083;DHT22;4577;48.704;9.000;2023-02-15T04:00:17;1.60;73.00
9083;DHT22;4577;48.704;9.000;2023-02-15T04:08:02;1.60;72.90
9083;DHT22;4577;48.704;9.000;2023-02-15T04:10:27;1.50;73.00
9083;DHT22;4577;48.704;9.000;2023-02-15T04:13:12;1.50;73.10
9083;DHT22;4577;48.704;9.000;2023-02-15T04:15:37;1.60;73.40
9083;DHT22;4577;48.704;9.000;2023-02-15T04:21:06;1.60;73.10
9083;DHT22;4577;48.704;9.000;2023-02-15T04:23:50;1.40;73.40
9083;DHT22;4577;48.704;9.000;2023-02-15T04:29:00;1.50;73.20
9083;DHT22;4577;48.704;9.000;2023-02-15T04:31:26;1.50;73.00
9083;DHT22;4577;48.704;9.000;2023-02-15T04:33:52;1.50;73.00
9083;DHT22;4577;48.704;9.000;2023-02-15T04:38:43;1.40;72.00
9083;DHT22;4577;48.704;9.000;2023-02-15T04:41:09;1.50;72.10
9083;DHT22;4577;48.704;9.000;2023-02-15T04:43:36;1.30;72.60
9083;DHT22;4577;48.704;9.000;2023-02-15T04:46:02;1.40;73.30
9083;DHT22;4577;48.704;9.000;2023-02-15T04:50:54;1.00;73.40
9083;DHT22;4577;48.704;9.000;2023-02-15T04:53:19;1.30;73.40
9083;DHT22;4577;48.704;9.000;2023-02-15T04:55:45;1.30;73.00
9083;DHT22;4577;48.704;9.000;2023-02-15T04:58:11;1.20;73.70
9083;DHT22;4577;48.704;9.000;2023-02-15T05:00:36;1.40;74.00
9083;DHT22;4577;48.704;9.000;2023-02-15T05:12:46;1.30;73.10
9083;DHT22;4577;48.704;9.000;2023-02-15T05:20:05;1.20;72.80
9083;DHT22;4577;48.704;9.000;2023-02-15T05:27:41;1.00;73.60
9083;DHT22;4577;48.704;9.000;2023-02-15T05:35:18;1.00;73.70
9083;DHT22;4577;48.704;9.000;2023-02-15T05:37:44;1.20;73.20
9083;DHT22;4577;48.704;9.000;2023-02-15T05:40:10;0.70;72.60
9083;DHT22;4577;48.704;9.000;2023-02-15T05:47:29;0.80;72.20
9083;DHT22;4577;48.704;9.000;2023-02-15T05:49:55;1.80;73.50
9083;DHT22;4577;48.704;9.000;2023-02-15T05:52:20;1.00;72.90
9083;DHT22;4577;48.704;9.000;2023-02-15T05:59:39;1.00;73.20
9083;DHT22;4577;48.704;9.000;2023-02-15T06:02:05;1.30;73.50
9083;DHT22;4577;48.704;9.000;2023-02-15T06:04:32;1.00;72.80
9083;DHT22;4577;48.704;9.000;2023-02-15T06:14:16;1.10;73.00
9083;DHT22;4577;48.704;9.000;2023-02-15T06:19:07;1.10;73.00
9083;DHT22;4577;48.704;9.000;2023-02-15T06:33:43;0.90;72.70
9083;DHT22;4577;48.704;9.000;2023-02-15T06:36:09;0.50;72.60
9083;DHT22;4577;48.704;9.000;2023-02-15T06:43:27;0.50;73.20
9083;DHT22;4577;48.704;9.000;2023-02-15T07:02:56;0.90;73.10
9083;DHT22;4577;48.704;9.000;2023-02-15T07:15:12;0.90;75.90
9083;DHT22;4577;48.704;9.000;2023-02-15T07:20:07;1.10;75.40
9083;DHT22;4577;48.704;9.000;2023-02-15T07:22:33;1.10;75.30
9083;DHT22;4577;48.704;9.000;2023-02-15T07:27:27;1.20;74.70
9083;DHT22;4577;48.704;9.000;2023-02-15T07:29:53;1.00;74.70
9083;DHT22;4577;48.704;9.000;2023-02-15T07:37:10;1.30;76.10
9083;DHT22;4577;48.704;9.000;2023-02-15T07:49:21;1.40;77.10
9083;DHT22;4577;48.704;9.000;2023-02-15T07:54:12;1.40;76.10
9083;DHT22;4577;48.704;9.000;2023-02-15T08:01:38;1.40;76.10
9083;DHT22;4577;48.704;9.000;2023-02-15T08:04:05;1.50;77.30
9083;DHT22;4577;48.704;9.000;2023-02-15T08:06:34;1.40;77.40
9083;DHT22;4577;48.704;9.000;2023-02-15T08:09:01;1.50;77.30
9083;DHT22;4577;48.704;9.000;2023-02-15T08:11:30;1.60;77.00
9083;DHT22;4577;48.704;9.000;2023-02-15T08:14:13;1.70;76.50
9083;DHT22;4577;48.704;9.000;2023-02-15T08:16:55;1.80;76.00
9083;DHT22;4577;48.704;9.000;2023-02-15T08:19:27;1.90;75.50
9083;DHT22;4577;48.704;9.000;2023-02-15T08:21:55;2.00;74.90
9083;DHT22;4577;48.704;9.000;2023-02-15T08:24:26;2.10;74.80
9083;DHT22;4577;48.704;9.000;2023-02-15T08:29:23;2.30;74.40
9083;DHT22;4577;48.704;9.000;2023-02-15T08:31:52;2.30;75.00
9083;DHT22;4577;48.704;9.000;2023-02-15T08:34:19;2.40;75.90
9083;DHT22;4577;48.704;9.000;2023-02-15T08:39:12;2.50;76.50
9083;DHT22;4577;48.704;9.000;2023-02-15T08:41:41;2.60;76.50
9083;DHT22;4577;48.704;9.000;2023-02-15T08:44:08;2.40;75.90
9083;DHT22;4577;48.704;9.000;2023-02-15T08:46:37;3.20;75.50
9083;DHT22;4577;48.704;9.000;2023-02-15T08:49:03;2.60;74.50
9083;DHT22;4577;48.704;9.000;2023-02-15T08:51:34;3.00;73.90
9083;DHT22;4577;48.704;9.000;2023-02-15T08:54:03;2.90;73.20
9083;DHT22;4577;48.704;9.000;2023-02-15T08:56:32;3.10;73.20
9083;DHT22;4577;48.704;9.000;2023-02-15T08:58:59;3.50;73.80
9083;DHT22;4577;48.704;9.000;2023-02-15T09:01:27;3.10;73.10
9083;DHT22;4577;48.704;9.000;2023-02-15T09:03:59;3.30;73.10
9083;DHT22;4577;48.704;9.000;2023-02-15T09:06:26;3.40;72.70
9083;DHT22;4577;48.704;9.000;2023-02-15T09:08:52;3.60;72.20
9083;DHT22;4577;48.704;9.000;2023-02-15T09:11:25;3.40;71.60
9083;DHT22;4577;48.704;9.000;2023-02-15T09:16:23;3.50;71.10
9083;DHT22;4577;48.704;9.000;2023-02-15T09:18:50;3.60;71.10
9083;DHT22;4577;48.704;9.000;2023-02-15T09:21:18;3.60;71.00
9083;DHT22;4577;48.704;9.000;2023-02-15T09:23:46;3.70;70.40
9083;DHT22;4577;48.704;9.000;2023-02-15T09:26:14;3.90;70.20
9083;DHT22;4577;48.704;9.000;2023-02-15T09:28:40;4.00;69.60
9083;DHT22;4577;48.704;9.000;2023-02-15T09:33:38;4.00;70.20
9083;DHT22;4577;48.704;9.000;2023-02-15T09:36:04;4.20;70.10
9083;DHT22;4577;48.704;9.000;2023-02-15T09:38:31;4.20;69.40
9083;DHT22;4577;48.704;9.000;2023-02-15T09:41:22;4.20;69.00
9083;DHT22;4577;48.704;9.000;2023-02-15T09:50:03;4.40;67.90
9083;DHT22;4577;48.704;9.000;2023-02-15T10:00:31;4.80;65.90
9083;DHT22;4577;48.704;9.000;2023-02-15T10:03:33;4.90;65.60
9083;DHT22;4577;48.704;9.000;2023-02-15T10:09:07;5.00;64.50
9083;DHT22;4577;48.704;9.000;2023-02-15T10:17:27;5.40;63.60
9083;DHT22;4577;48.704;9.000;2023-02-15T10:27:55;5.70;63.10
9083;DHT22;4577;48.704;9.000;2023-02-15T10:30:44;5.80;62.40
9083;DHT22;4577;48.704;9.000;2023-02-15T10:33:39;5.90;61.80
9083;DHT22;4577;48.704;9.000;2023-02-15T10:50:07;6.40;60.80
9083;DHT22;4577;48.704;9.000;2023-02-15T10:53:05;6.50;61.20
9083;DHT22;4577;48.704;9.000;2023-02-15T11:06:21;7.10;57.00
9083;DHT22;4577;48.704;9.000;2023-02-15T11:08:55;7.30;56.40
9083;DHT22;4577;48.704;9.000;2023-02-15T11:11:41;7.60;55.70
9083;DHT22;4577;48.704;9.000;2023-02-15T11:17:06;7.90;55.40
9083;DHT22;4577;48.704;9.000;2023-02-15T11:19:46;7.90;54.70
9083;DHT22;4577;48.704;9.000;2023-02-15T11:22:14;6.10;52.80
9083;DHT22;4577;48.704;9.000;2023-02-15T11:24:42;8.10;53.70
9083;DHT22;4577;48.704;9.000;2023-02-15T11:27:24;8.10;55.20
9083;DHT22;4577;48.704;9.000;2023-02-15T11:29:58;8.30;55.90
9083;DHT22;4577;48.704;9.000;2023-02-15T11:32:39;8.50;56.30
9083;DHT22;4577;48.704;9.000;2023-02-15T11:40:18;9.10;56.60
9083;DHT22;4577;48.704;9.000;2023-02-15T11:42:46;9.10;56.20
9083;DHT22;4577;48.704;9.000;2023-02-15T11:45:28;9.20;56.10
9083;DHT22;4577;48.704;9.000;2023-02-15T11:47:55;9.40;55.80
9083;DHT22;4577;48.704;9.000;2023-02-15T11:50:27;9.50;56.00
9083;DHT22;4577;48.704;9.000;2023-02-15T11:52:58;9.60;55.40
9083;DHT22;4577;48.704;9.000;2023-02-15T12:00:33;9.70;53.10
9083;DHT22;4577;48.704;9.000;2023-02-15T12:03:07;9.60;52.80
9083;DHT22;4577;48.704;9.000;2023-02-15T12:05:37;9.80;51.80
9083;DHT22;4577;48.704;9.000;2023-02-15T12:08:13;9.80;51.10
9083;DHT22;4577;48.704;9.000;2023-02-15T12:10:58;9.80;51.10
9083;DHT22;4577;48.704;9.000;2023-02-15T12:15:54;9.80;50.50
9083;DHT22;4577;48.704;9.000;2023-02-15T12:18:42;9.90;48.60
9083;DHT22;4577;48.704;9.000;2023-02-15T12:21:12;9.90;48.10
9083;DHT22;4577;48.704;9.000;2023-02-15T12:23:51;9.90;47.90
9083;DHT22;4577;48.704;9.000;2023-02-15T12:26:30;9.90;47.60
9083;DHT22;4577;48.704;9.000;2023-02-15T12:28:59;10.10;46.30
9083;DHT22;4577;48.704;9.000;2023-02-15T12:33:55;10.20;45.50
9083;DHT22;4577;48.704;9.000;2023-02-15T12:36:24;10.30;44.50
9083;DHT22;4577;48.704;9.000;2023-02-15T12:41:37;10.50;44.30
9083;DHT22;4577;48.704;9.000;2023-02-15T12:51:45;7.70;44.20
9083;DHT22;4577;48.704;9.000;2023-02-15T13:04:29;10.70;43.60
9083;DHT22;4577;48.704;9.000;2023-02-15T13:07:00;10.90;42.40
9083;DHT22;4577;48.704;9.000;2023-02-15T13:09:37;11.00;41.70
9083;DHT22;4577;48.704;9.000;2023-02-15T13:12:24;11.10;40.90
9083;DHT22;4577;48.704;9.000;2023-02-15T13:14:54;11.30;40.10
9083;DHT22;4577;48.704;9.000;2023-02-15T13:17:40;11.50;39.20
9083;DHT22;4577;48.704;9.000;2023-02-15T13:20:20;11.60;39.10
9083;DHT22;4577;48.704;9.000;2023-02-15T13:22:57;11.70;40.20
9083;DHT22;4577;48.704;9.000;2023-02-15T13:25:29;11.70;39.20
9083;DHT22;4577;48.704;9.000;2023-02-15T13:28:02;11.80;39.00
9083;DHT22;4577;48.704;9.000;2023-02-15T13:33:01;11.80;39.60
9083;DHT22;4577;48.704;9.000;2023-02-15T13:35:39;11.90;39.10
9083;DHT22;4577;48.704;9.000;2023-02-15T13:43:43;12.20;38.80
9083;DHT22;4577;48.704;9.000;2023-02-15T14:07:52;13.00;35.50
9083;DHT22;4577;48.704;9.000;2023-02-15T14:15:47;13.10;34.20
9083;DHT22;4577;48.704;9.000;2023-02-15T14:18:25;13.10;33.30
9083;DHT22;4577;48.704;9.000;2023-02-15T14:26:03;13.30;33.00
9083;DHT22;4577;48.704;9.000;2023-02-15T14:28:57;13.30;32.40
9083;DHT22;4577;48.704;9.000;2023-02-15T14:31:37;13.30;32.30
9083;DHT22;4577;48.704;9.000;2023-02-15T14:36:32;13.40;32.60
9083;DHT22;4577;48.704;9.000;2023-02-15T14:42:17;13.40;37.00
9083;DHT22;4577;48.704;9.000;2023-02-15T14:45:03;13.40;37.80
9083;DHT22;4577;48.704;9.000;2023-02-15T14:47:40;13.40;37.80
9083;DHT22;4577;48.704;9.000;2023-02-15T14:53:15;13.30;39.00
9083;DHT22;4577;48.704;9.000;2023-02-15T14:58:13;13.50;39.30
9083;DHT22;4577;48.704;9.000;2023-02-15T15:00:40;13.60;39.30
9083;DHT22;4577;48.704;9.000;2023-02-15T15:03:21;13.60;38.90
9083;DHT22;4577;48.704;9.000;2023-02-15T15:05:54;13.60;39.00
9083;DHT22;4577;48.704;9.000;2023-02-15T15:41:41;13.30;43.90
9083;DHT22;4577;48.704;9.000;2023-02-15T15:49:57;13.10;44.20
9083;DHT22;4577;48.704;9.000;2023-02-15T15:52:24;13.00;44.10
9083;DHT22;4577;48.704;9.000;2023-02-15T15:55:15;13.10;44.10
9083;DHT22;4577;48.704;9.000;2023-02-15T15:57:45;13.00;44.10
9083;DHT22;4577;48.704;9.000;2023-02-15T16:02:53;12.70;43.70
9083;DHT22;4577;48.704;9.000;2023-02-15T16:07:46;12.80;43.90
9083;DHT22;4577;48.704;9.000;2023-02-15T16:10:24;12.70;43.90
9083;DHT22;4577;48.704;9.000;2023-02-15T16:12:51;14.80;45.70
9083;DHT22;4577;48.704;9.000;2023-02-15T16:15:23;12.50;44.30
9083;DHT22;4577;48.704;9.000;2023-02-15T16:17:53;16.80;48.60
9083;DHT22;4577;48.704;9.000;2023-02-15T16:20:30;12.20;45.00
9083;DHT22;4577;48.704;9.000;2023-02-15T16:31:13;11.70;45.80
9083;DHT22;4577;48.704;9.000;2023-02-15T16:33:40;11.70;46.30
9083;DHT22;4577;48.704;9.000;2023-02-15T16:36:10;11.60;45.90
9083;DHT22;4577;48.704;9.000;2023-02-15T16:41:11;11.50;45.90
9083;DHT22;4577;48.704;9.000;2023-02-15T16:43:37;11.20;45.60
9083;DHT22;4577;48.704;9.000;2023-02-15T16:46:08;11.30;45.60
9083;DHT22;4577;48.704;9.000;2023-02-15T16:48:40;11.30;45.60
9083;DHT22;4577;48.704;9.000;2023-02-15T16:51:07;11.20;45.60
9083;DHT22;4577;48.704;9.000;2023-02-15T16:56:03;11.10;46.00
9083;DHT22;4577;48.704;9.000;2023-02-15T16:58:54;11.00;46.10
9083;DHT22;4577;48.704;9.000;2023-02-15T17:01:22;10.90;46.40
9083;DHT22;4577;48.704;9.000;2023-02-15T17:03:51;10.80;46.40
9083;DHT22;4577;48.704;9.000;2023-02-15T17:06:26;10.80;46.60
9083;DHT22;4577;48.704;9.000;2023-02-15T17:08:52;10.70;46.60
9083;DHT22;4577;48.704;9.000;2023-02-15T17:11:36;10.70;46.70
9083;DHT22;4577;48.704;9.000;2023-02-15T17:19:17;10.50;47.40
9083;DHT22;4577;48.704;9.000;2023-02-15T17:22:04;10.50;47.70
9083;DHT22;4577;48.704;9.000;2023-02-15T17:24:45;10.40;47.80
9083;DHT22;4577;48.704;9.000;2023-02-15T17:29:41;10.20;46.80
9083;DHT22;4577;48.704;9.000;2023-02-15T17:32:22;10.20;46.50
9083;DHT22;4577;48.704;9.000;2023-02-15T17:37:45;10.00;46.50
9083;DHT22;4577;48.704;9.000;2023-02-15T17:40:23;9.80;47.50
9083;DHT22;4577;48.704;9.000;2023-02-15T17:45:16;9.80;47.90
9083;DHT22;4577;48.704;9.000;2023-02-15T17:50:21;9.80;48.30
9083;DHT22;4577;48.704;9.000;2023-02-15T17:55:16;9.70;48.70
9083;DHT22;4577;48.704;9.000;2023-02-15T17:58:03;9.60;49.60
9083;DHT22;4577;48.704;9.000;2023-02-15T18:00:30;9.50;50.00
9083;DHT22;4577;48.704;9.000;2023-02-15T18:03:14;9.40;49.60
9083;DHT22;4577;48.704;9.000;2023-02-15T18:11:28;9.10;51.10
9083;DHT22;4577;48.704;9.000;2023-02-15T18:14:09;9.20;51.60
9083;DHT22;4577;48.704;9.000;2023-02-15T18:16:40;9.20;51.60
9083;DHT22;4577;48.704;9.000;2023-02-15T18:19:26;9.20;51.40
9083;DHT22;4577;48.704;9.000;2023-02-15T18:24:24;9.10;52.00
9083;DHT22;4577;48.704;9.000;2023-02-15T18:26:52;9.10;52.00
9083;DHT22;4577;48.704;9.000;2023-02-15T18:31:45;9.00;52.20
9083;DHT22;4577;48.704;9.000;2023-02-15T18:34:27;8.90;52.40
9083;DHT22;4577;48.704;9.000;2023-02-15T18:44:12;9.00;52.60
9083;DHT22;4577;48.704;9.000;2023-02-15T18:49:04;8.30;53.00
9083;DHT22;4577;48.704;9.000;2023-02-15T18:51:30;8.30;53.50
9083;DHT22;4577;48.704;9.000;2023-02-15T18:53:57;8.30;53.40
9083;DHT22;4577;48.704;9.000;2023-02-15T19:01:19;8.30;54.30
9083;DHT22;4577;48.704;9.000;2023-02-15T19:03:47;8.10;54.20
9083;DHT22;4577;48.704;9.000;2023-02-15T19:06:16;7.90;54.10
9083;DHT22;4577;48.704;9.000;2023-02-15T19:08:47;8.00;54.20
9083;DHT22;4577;48.704;9.000;2023-02-15T19:11:15;8.00;54.40
9083;DHT22;4577;48.704;9.000;2023-02-15T19:18:52;7.50;54.60
9083;DHT22;4577;48.704;9.000;2023-02-15T19:23:50;7.60;54.30
9083;DHT22;4577;48.704;9.000;2023-02-15T19:31:11;7.60;54.50
9083;DHT22;4577;48.704;9.000;2023-02-15T19:33:37;7.20;54.30
9083;DHT22;4577;48.704;9.000;2023-02-15T19:36:04;7.30;54.60
9083;DHT22;4577;48.704;9.000;2023-02-15T19:38:32;7.30;54.60
9083;DHT22;4577;48.704;9.000;2023-02-15T19:41:07;3.90;52.10
9083;DHT22;4577;48.704;9.000;2023-02-15T19:50:51;7.30;54.80
9083;DHT22;4577;48.704;9.000;2023-02-15T19:53:21;7.20;54.60
9083;DHT22;4577;48.704;9.000;2023-02-15T19:55:47;7.10;54.40
9083;DHT22;4577;48.704;9.000;2023-02-15T20:03:05;7.00;54.00
9083;DHT22;4577;48.704;9.000;2023-02-15T20:05:33;6.90;54.10
9083;DHT22;4577;48.704;9.000;2023-02-15T20:10:30;6.50;54.30
9083;DHT22;4577;48.704;9.000;2023-02-15T20:12:56;6.30;54.60
9083;DHT22;4577;48.704;9.000;2023-02-15T20:15:32;6.70;55.40
9083;DHT22;4577;48.704;9.000;2023-02-15T20:18:00;6.60;54.70
9083;DHT22;4577;48.704;9.000;2023-02-15T20:20:38;6.80;54.50
9083;DHT22;4577;48.704;9.000;2023-02-15T20:23:04;6.70;54.30
9083;DHT22;4577;48.704;9.000;2023-02-15T20:25:32;6.60;54.70
9083;DHT22;4577;48.704;9.000;2023-02-15T20:28:00;6.60;55.10
9083;DHT22;4577;48.704;9.000;2023-02-15T20:30:28;6.70;55.40
9083;DHT22;4577;48.704;9.000;2023-02-15T20:35:22;6.60;55.60
9083;DHT22;4577;48.704;9.000;2023-02-15T20:37:50;6.50;55.50
9083;DHT22;4577;48.704;9.000;2023-02-15T20:40:28;6.60;55.50
9083;DHT22;4577;48.704;9.000;2023-02-15T20:45:31;6.50;54.90
9083;DHT22;4577;48.704;9.000;2023-02-15T20:47:57;6.50;55.20
9083;DHT22;4577;48.704;9.000;2023-02-15T20:50:26;6.30;55.60
9083;DHT22;4577;48.704;9.000;2023-02-15T20:52:54;6.30;55.90
9083;DHT22;4577;48.704;9.000;2023-02-15T20:55:26;6.40;56.20
9083;DHT22;4577;48.704;9.000;2023-02-15T20:57:52;6.20;55.80
9083;DHT22;4577;48.704;9.000;2023-02-15T21:00:20;6.30;55.90
9083;DHT22;4577;48.704;9.000;2023-02-15T21:02:59;6.20;55.80
9083;DHT22;4577;48.704;9.000;2023-02-15T21:05:28;6.10;55.70
9083;DHT22;4577;48.704;9.000;2023-02-15T21:07:55;6.10;55.70
9083;DHT22;4577;48.704;9.000;2023-02-15T21:10:24;5.80;55.50
9083;DHT22;4577;48.704;9.000;2023-02-15T21:12:51;5.90;56.00
9083;DHT22;4577;48.704;9.000;2023-02-15T21:15:36;5.50;55.80
9083;DHT22;4577;48.704;9.000;2023-02-15T21:18:09;5.90;56.50
9083;DHT22;4577;48.704;9.000;2023-02-15T21:20:36;5.00;55.90
9083;DHT22;4577;48.704;9.000;2023-02-15T21:25:33;5.80;56.60
9083;DHT22;4577;48.704;9.000;2023-02-15T21:30:26;5.70;56.80
9083;DHT22;4577;48.704;9.000;2023-02-15T21:37:46;5.70;57.00
9083;DHT22;4577;48.704;9.000;2023-02-15T21:45:23;5.70;56.60
9083;DHT22;4577;48.704;9.000;2023-02-15T21:48:07;5.70;57.00
9083;DHT22;4577;48.704;9.000;2023-02-15T21:50:34;5.50;56.80
9083;DHT22;4577;48.704;9.000;2023-02-15T21:53:33;5.40;56.40
9083;DHT22;4577;48.704;9.000;2023-02-15T21:56:02;5.00;56.70
9083;DHT22;4577;48.704;9.000;2023-02-15T21:58:31;4.90;57.10
9083;DHT22;4577;48.704;9.000;2023-02-15T22:00:58;5.10;57.30
9083;DHT22;4577;48.704;9.000;2023-02-15T22:03:29;5.20;57.80
9083;DHT22;4577;48.704;9.000;2023-02-15T22:05:55;4.90;57.30
9083;DHT22;4577;48.704;9.000;2023-02-15T22:08:21;4.90;57.40
9083;DHT22;4577;48.704;9.000;2023-02-15T22:10:47;4.90;57.40
9083;DHT22;4577;48.704;9.000;2023-02-15T22:13:15;5.10;57.50
9083;DHT22;4577;48.704;9.000;2023-02-15T22:15:42;5.10;57.80
9083;DHT22;4577;48.704;9.000;2023-02-15T22:18:27;5.00;57.90
9083;DHT22;4577;48.704;9.000;2023-02-15T22:20:53;4.70;58.00
9083;DHT22;4577;48.704;9.000;2023-02-15T22:23:20;4.70;58.20
9083;DHT22;4577;48.704;9.000;2023-02-15T22:25:50;5.20;58.60
9083;DHT22;4577;48.704;9.000;2023-02-15T22:28:27;5.10;58.20
9083;DHT22;4577;48.704;9.000;2023-02-15T22:30:54;5.10;58.30
9083;DHT22;4577;48.704;9.000;2023-02-15T22:33:23;5.10;58.20
9083;DHT22;4577;48.704;9.000;2023-02-15T22:35:48;4.90;58.10
9083;DHT22;4577;48.704;9.000;2023-02-15T22:40:41;5.00;57.70
9083;DHT22;4577;48.704;9.000;2023-02-15T22:43:15;5.00;58.20
9083;DHT22;4577;48.704;9.000;2023-02-15T22:45:44;4.90;58.20
9083;DHT22;4577;48.704;9.000;2023-02-15T22:48:10;4.50;58.40
9083;DHT22;4577;48.704;9.000;2023-02-15T22:50:35;4.60;58.60
9083;DHT22;4577;48.704;9.000;2023-02-15T22:53:02;4.50;58.60
9083;DHT22;4577;48.704;9.000;2023-02-15T22:55:31;4.50;58.70
9083;DHT22;4577;48.704;9.000;2023-02-15T23:00:26;4.60;59.00
9083;DHT22;4577;48.704;9.000;2023-02-15T23:02:53;4.40;58.40
9083;DHT22;4577;48.704;9.000;2023-02-15T23:05:27;4.50;58.60
9083;DHT22;4577;48.704;9.000;2023-02-15T23:07:53;4.50;59.10
9083;DHT22;4577;48.704;9.000;2023-02-15T23:10:22;4.50;58.80
9083;DHT22;4577;48.704;9.000;2023-02-15T23:12:54;4.40;58.90
9083;DHT22;4577;48.704;9.000;2023-02-15T23:15:40;4.50;59.10
9083;DHT22;4577;48.704;9.000;2023-02-15T23:18:17;4.50;58.90
9083;DHT22;4577;48.704;9.000;2023-02-15T23:20:44;4.40;59.00
9083;DHT22;4577;48.704;9.000;2023-02-15T23:23:11;4.40;59.40
9083;DHT22;4577;48.704;9.000;2023-02-15T23:25:38;5.00;59.90
9083;DHT22;4577;48.704;9.000;2023-02-15T23:28:04;4.50;59.60
9083;DHT22;4577;48.704;9.000;2023-02-15T23:30:31;4.30;59.50
9083;DHT22;4577;48.704;9.000;2023-02-15T23:35:35;4.40;59.40
9083;DHT22;4577;48.704;9.000;2023-02-15T23:38:01;4.50;59.60
9083;DHT22;4577;48.704;9.000;2023-02-15T23:40:35;4.30;59.50
9083;DHT22;4577;48.704;9.000;2023-02-15T23:43:21;4.40;59.50
9083;DHT22;4577;48.704;9.000;2023-02-15T23:48:33;4.20;59.50
9083;DHT22;4577;48.704;9.000;2023-02-15T23:50:59;4.30;59.60
9083;DHT22;4577;48.704;9.000;2023-02-15T23:53:25;4.30;59.90
9083;DHT22;4577;48.704;9.000;2023-02-15T23:55:52;4.20;59.70
9083;DHT22;4577;48.704;9.000;2023-02-15T23:58:20;4.30;59.90
